Converse, South Carolina
Current Conditions -  °F | °C
As of 12:15 PM on Friday 28 Nov 2014 (Local Time) from KSPA Reporting Station
Clear Clear  
Wind Chill: 43°   Ceiling: Unl
Heat Index: 43°   Visibility: 10mi
Dew Point: 18°   Wind: 0mph
Humidity: 36%   Direction: NA
Pressure: 30.33"   Gusts: NA
Location:  34.99°N, 81.83°W
Report Text: KSPA 281715Z AUTO 00000KT 10SM CLR 06/M08 A3033 RMK AO2
Loading
Personal Weather Stations






























Interactive Weather Map New forecast layout! Learn more

10-Day Weather Forecast

Advertisements
Track Severe Weather on mobile